createdAt,value
2018-02-14T00:00:36.945Z,-2.24
2018-02-14T00:03:04.387Z,-2.29
2018-02-14T00:05:31.821Z,-2.20
2018-02-14T00:07:59.241Z,-2.32
2018-02-14T00:10:26.664Z,-2.34
2018-02-14T00:12:54.078Z,-2.42
2018-02-14T00:15:21.515Z,-2.41
2018-02-14T00:17:48.924Z,-2.36
2018-02-14T00:20:16.349Z,-2.37
2018-02-14T00:22:43.766Z,-2.37
2018-02-14T00:25:11.190Z,-2.43
2018-02-14T00:27:39.093Z,-2.41
2018-02-14T00:30:06.518Z,-2.44
2018-02-14T00:32:33.951Z,-2.53
2018-02-14T00:35:01.370Z,-2.54
2018-02-14T00:37:28.878Z,-2.40
2018-02-14T00:39:56.314Z,-2.40
2018-02-14T00:42:23.730Z,-2.29
2018-02-14T00:44:51.154Z,-2.09
2018-02-14T00:47:18.570Z,-2.14
2018-02-14T00:49:45.970Z,-2.27
2018-02-14T00:52:13.394Z,-2.51
2018-02-14T00:54:40.820Z,-2.61
2018-02-14T00:57:08.242Z,-2.60
2018-02-14T00:59:35.655Z,-2.59
2018-02-14T01:02:03.088Z,-2.61
2018-02-14T01:04:30.514Z,-2.71
2018-02-14T01:06:57.959Z,-2.70
2018-02-14T01:09:25.479Z,-2.70
2018-02-14T01:11:52.910Z,-2.75
2018-02-14T01:14:20.319Z,-2.88
2018-02-14T01:16:47.743Z,-2.84
2018-02-14T01:19:17.145Z,-3.02
2018-02-14T01:21:50.478Z,-3.03
2018-02-14T01:24:17.900Z,-3.22
2018-02-14T01:26:45.313Z,-3.20
2018-02-14T01:29:12.730Z,-3.11
2018-02-14T01:31:40.161Z,-3.03
2018-02-14T01:34:08.068Z,-2.96
2018-02-14T01:36:35.491Z,-2.91
2018-02-14T01:39:02.926Z,-2.87
2018-02-14T01:41:30.364Z,-2.85
2018-02-14T01:43:57.841Z,-2.66
2018-02-14T01:46:25.360Z,-2.37
2018-02-14T01:48:52.798Z,-2.80
2018-02-14T01:51:20.237Z,-3.01
2018-02-14T01:53:47.653Z,-3.01
2018-02-14T01:56:15.052Z,-2.89
2018-02-14T01:58:42.767Z,-3.08
2018-02-14T02:01:10.197Z,-3.17
2018-02-14T02:03:37.615Z,-3.56
2018-02-14T02:06:05.030Z,-3.88
2018-02-14T02:11:05.229Z,-4.14
2018-02-14T02:13:32.658Z,-4.07
2018-02-14T02:16:00.070Z,-4.05
2018-02-14T02:18:27.474Z,-3.99
2018-02-14T02:20:54.954Z,-3.95
2018-02-14T02:23:22.372Z,-3.78
2018-02-14T02:25:49.834Z,-3.61
2018-02-14T02:28:17.269Z,-3.75
2018-02-14T02:30:44.689Z,-3.89
2018-02-14T02:33:12.135Z,-3.94
2018-02-14T02:35:39.557Z,-4.09
2018-02-14T02:38:06.983Z,-4.03
2018-02-14T02:40:34.436Z,-4.24
2018-02-14T02:43:01.854Z,-4.06
2018-02-14T02:45:29.265Z,-3.92
2018-02-14T02:47:56.695Z,-4.20
2018-02-14T02:50:24.118Z,-4.08
2018-02-14T02:52:51.547Z,-4.09
2018-02-14T02:55:18.953Z,-4.03
2018-02-14T02:57:46.424Z,-3.86
2018-02-14T03:00:13.914Z,-3.73
2018-02-14T03:02:41.333Z,-3.32
2018-02-14T03:05:08.755Z,-3.43
2018-02-14T03:07:36.184Z,-3.32
2018-02-14T03:10:03.629Z,-3.38
2018-02-14T03:12:31.051Z,-3.65
2018-02-14T03:14:58.533Z,-3.70
2018-02-14T03:17:25.987Z,-4.04
2018-02-14T03:19:53.459Z,-4.05
2018-02-14T03:22:20.876Z,-4.00
2018-02-14T03:24:48.315Z,-3.94
2018-02-14T03:27:16.757Z,-4.25
2018-02-14T03:29:44.174Z,-4.45
2018-02-14T03:32:11.589Z,-4.28
2018-02-14T03:34:39.046Z,-4.39
2018-02-14T03:37:06.462Z,-4.65
2018-02-14T03:39:33.887Z,-4.88
2018-02-14T03:42:01.314Z,-4.96
2018-02-14T03:44:28.748Z,-4.89
2018-02-14T03:46:56.170Z,-4.85
2018-02-14T03:49:23.599Z,-4.95
2018-02-14T03:51:51.038Z,-4.94
2018-02-14T03:54:18.475Z,-4.83
2018-02-14T03:56:45.904Z,-4.84
2018-02-14T03:59:13.337Z,-4.86
2018-02-14T04:01:40.862Z,-4.91
2018-02-14T04:04:08.288Z,-5.01
2018-02-14T04:06:35.810Z,-5.12
2018-02-14T04:09:03.223Z,-5.19
2018-02-14T04:11:30.652Z,-5.24
2018-02-14T04:13:58.060Z,-5.31
2018-02-14T04:16:25.529Z,-5.37
2018-02-14T04:18:52.966Z,-5.26
2018-02-14T04:21:20.440Z,-5.23
2018-02-14T04:23:47.889Z,-5.24
2018-02-14T04:26:15.345Z,-5.30
2018-02-14T04:28:42.779Z,-5.38
2018-02-14T04:31:10.422Z,-5.43
2018-02-14T04:33:37.905Z,-5.57
2018-02-14T04:36:05.341Z,-5.51
2018-02-14T04:38:32.791Z,-5.41
2018-02-14T04:41:00.668Z,-5.43
2018-02-14T04:43:28.092Z,-5.39
2018-02-14T04:45:55.538Z,-5.38
2018-02-14T04:48:22.954Z,-5.39
2018-02-14T04:50:50.837Z,-5.36
2018-02-14T04:53:18.260Z,-5.37
2018-02-14T04:55:45.691Z,-5.42
2018-02-14T04:58:13.111Z,-5.44
2018-02-14T05:00:40.537Z,-5.30
2018-02-14T05:03:07.963Z,-5.38
2018-02-14T05:05:35.442Z,-5.30
2018-02-14T05:08:02.887Z,-5.34
2018-02-14T05:10:30.336Z,-5.26
2018-02-14T05:12:57.764Z,-5.30
2018-02-14T05:15:25.183Z,-5.35
2018-02-14T05:17:52.629Z,-5.29
2018-02-14T05:20:20.053Z,-5.03
2018-02-14T05:22:47.505Z,-4.90
2018-02-14T05:25:14.970Z,-4.77
2018-02-14T05:27:42.403Z,-4.86
2018-02-14T05:30:09.826Z,-4.90
2018-02-14T05:32:37.302Z,-5.02
2018-02-14T05:35:04.791Z,-5.11
2018-02-14T05:37:32.212Z,-5.12
2018-02-14T05:39:59.705Z,-5.15
2018-02-14T05:42:27.135Z,-5.18
2018-02-14T05:44:54.542Z,-5.17
2018-02-14T05:47:21.980Z,-4.90
2018-02-14T05:49:49.403Z,-4.72
2018-02-14T05:52:16.826Z,-4.56
2018-02-14T05:54:44.257Z,-4.54
2018-02-14T05:57:11.718Z,-4.54
2018-02-14T05:59:39.143Z,-4.63
2018-02-14T06:02:06.571Z,-4.41
2018-02-14T06:04:33.974Z,-4.67
2018-02-14T06:07:01.406Z,-4.86
2018-02-14T06:09:28.849Z,-4.94
2018-02-14T06:11:56.270Z,-5.17
2018-02-14T06:14:23.828Z,-5.19
2018-02-14T06:16:51.244Z,-5.16
2018-02-14T06:19:18.684Z,-5.19
2018-02-14T06:21:46.224Z,-5.13
2018-02-14T06:24:13.679Z,-5.13
2018-02-14T06:26:41.129Z,-5.04
2018-02-14T06:29:08.553Z,-4.94
2018-02-14T06:31:35.965Z,-4.89
2018-02-14T06:34:03.394Z,-4.85
2018-02-14T06:36:30.826Z,-4.92
2018-02-14T06:38:58.302Z,-5.05
2018-02-14T06:41:25.725Z,-5.13
2018-02-14T06:43:53.153Z,-5.26
2018-02-14T06:46:20.578Z,-5.29
2018-02-14T06:48:48.000Z,-5.22
2018-02-14T06:51:15.400Z,-5.21
2018-02-14T06:53:42.911Z,-5.24
2018-02-14T06:56:10.294Z,-5.10
2018-02-14T06:58:37.716Z,-4.93
2018-02-14T07:01:05.169Z,-4.80
2018-02-14T07:03:32.625Z,-4.67
2018-02-14T07:06:00.055Z,-4.55
2018-02-14T07:08:27.502Z,-4.54
2018-02-14T07:10:55.498Z,-4.69
2018-02-14T07:13:22.921Z,-4.81
2018-02-14T07:15:50.351Z,-4.91
2018-02-14T07:18:17.785Z,-4.84
2018-02-14T07:20:45.195Z,-4.91
2018-02-14T07:23:12.609Z,-4.90
2018-02-14T07:25:40.034Z,-4.83
2018-02-14T07:28:07.478Z,-4.65
2018-02-14T07:30:34.896Z,-4.42
2018-02-14T07:33:02.303Z,-4.31
2018-02-14T07:35:29.730Z,-4.18
2018-02-14T07:37:57.146Z,-4.07
2018-02-14T07:40:24.586Z,-3.89
2018-02-14T07:42:52.024Z,-3.70
2018-02-14T07:45:19.534Z,-3.49
2018-02-14T07:47:47.061Z,-3.42
2018-02-14T07:50:14.513Z,-3.27
2018-02-14T07:52:41.932Z,-3.19
2018-02-14T07:55:09.354Z,-3.01
2018-02-14T07:57:36.807Z,-2.95
2018-02-14T08:00:04.234Z,-2.82
2018-02-14T08:02:31.673Z,-2.71
2018-02-14T08:04:59.092Z,-2.68
2018-02-14T08:07:27.220Z,-2.63
2018-02-14T08:09:54.679Z,-2.53
2018-02-14T08:12:22.084Z,-2.51
2018-02-14T08:14:49.535Z,-2.52
2018-02-14T08:17:16.954Z,-2.31
2018-02-14T08:19:44.453Z,-2.19
2018-02-14T08:22:11.873Z,-2.12
2018-02-14T08:24:39.299Z,-2.09
2018-02-14T08:27:06.732Z,-2.04
2018-02-14T08:29:34.141Z,-1.99
2018-02-14T08:32:01.562Z,-1.96
2018-02-14T08:34:29.021Z,-1.88
2018-02-14T08:36:56.480Z,-1.94
2018-02-14T08:39:23.973Z,-2.02
2018-02-14T08:41:51.404Z,-1.90
2018-02-14T08:44:18.830Z,-1.81
2018-02-14T08:46:46.332Z,-1.62
2018-02-14T08:49:13.746Z,-1.66
2018-02-14T08:51:41.162Z,-1.81
2018-02-14T08:54:08.629Z,-1.78
2018-02-14T08:56:36.046Z,-1.69
2018-02-14T08:59:03.513Z,-1.65
2018-02-14T09:01:30.976Z,-1.54
2018-02-14T09:03:58.812Z,-1.42
2018-02-14T09:06:26.274Z,-1.36
2018-02-14T09:08:53.702Z,-1.41
2018-02-14T09:11:21.172Z,-1.39
2018-02-14T09:13:48.590Z,-1.18
2018-02-14T09:16:16.039Z,-0.95
2018-02-14T09:18:43.449Z,-1.02
2018-02-14T09:21:10.865Z,-0.90
2018-02-14T09:23:38.329Z,-0.88
2018-02-14T09:26:05.750Z,-0.75
2018-02-14T09:28:33.219Z,-0.86
2018-02-14T09:31:00.678Z,-0.79
2018-02-14T09:33:28.093Z,-0.65
2018-02-14T09:35:55.524Z,-0.55
2018-02-14T09:38:23.045Z,-0.36
2018-02-14T09:40:50.474Z,-0.24
2018-02-14T09:43:17.992Z,-0.19
2018-02-14T09:45:45.457Z,0.01
2018-02-14T09:48:12.864Z,-0.04
2018-02-14T09:50:40.290Z,-0.16
2018-02-14T09:53:07.716Z,-0.10
2018-02-14T09:55:35.123Z,0.14
2018-02-14T09:58:02.551Z,0.17
2018-02-14T10:00:30.698Z,0.37
2018-02-14T10:02:58.121Z,0.53
2018-02-14T10:05:25.541Z,0.35
2018-02-14T10:07:52.977Z,0.30
2018-02-14T10:10:20.385Z,0.46
2018-02-14T10:12:47.815Z,0.59
2018-02-14T10:15:15.225Z,0.34
2018-02-14T10:17:42.657Z,0.32
2018-02-14T10:20:10.100Z,0.31
2018-02-14T10:22:37.525Z,0.20
2018-02-14T10:25:04.937Z,0.20
2018-02-14T10:27:32.354Z,0.59
2018-02-14T10:29:59.789Z,0.78
2018-02-14T10:32:27.302Z,0.92
2018-02-14T10:34:55.688Z,0.86
2018-02-14T10:37:23.104Z,1.03
2018-02-14T10:39:50.531Z,1.25
2018-02-14T10:42:17.946Z,1.46
2018-02-14T10:44:45.406Z,1.28
2018-02-14T10:47:12.829Z,1.50
2018-02-14T10:49:40.245Z,1.38
2018-02-14T10:52:07.674Z,1.39
2018-02-14T10:54:35.094Z,1.49
2018-02-14T10:57:02.611Z,1.84
2018-02-14T10:59:30.035Z,1.63
2018-02-14T11:02:13.108Z,1.46
2018-02-14T11:04:46.144Z,1.70
2018-02-14T11:07:19.351Z,1.86
2018-02-14T11:09:46.917Z,1.80
2018-02-14T11:12:14.329Z,1.59
2018-02-14T11:14:41.748Z,1.71
2018-02-14T11:17:09.252Z,1.79
2018-02-14T11:19:36.689Z,1.69
2018-02-14T11:22:04.173Z,1.69
2018-02-14T11:24:31.582Z,1.88
2018-02-14T11:26:59.032Z,1.91
2018-02-14T11:29:26.456Z,2.01
2018-02-14T11:31:53.862Z,2.04
2018-02-14T11:34:21.291Z,2.14
2018-02-14T11:36:48.697Z,2.25
2018-02-14T11:39:16.133Z,2.53
2018-02-14T11:41:43.570Z,2.43
2018-02-14T11:44:11.021Z,2.28
2018-02-14T11:46:38.430Z,2.36
2018-02-14T11:49:05.898Z,2.39
2018-02-14T11:51:34.354Z,2.53
2018-02-14T11:54:01.773Z,2.79
2018-02-14T11:56:29.240Z,2.66
2018-02-14T11:58:56.662Z,2.58
2018-02-14T12:01:24.104Z,2.86
2018-02-14T12:03:51.527Z,2.98
2018-02-14T12:06:18.949Z,2.89
2018-02-14T12:08:46.394Z,2.76
2018-02-14T12:11:13.846Z,2.84
2018-02-14T12:13:41.259Z,3.03
2018-02-14T12:16:08.675Z,3.14
2018-02-14T12:18:36.098Z,3.22
2018-02-14T12:21:03.514Z,3.28
2018-02-14T12:23:30.949Z,3.53
2018-02-14T12:25:58.364Z,3.61
2018-02-14T12:28:25.907Z,3.81
2018-02-14T12:30:53.328Z,4.11
2018-02-14T12:33:20.740Z,4.11
2018-02-14T12:35:48.223Z,4.16
2018-02-14T12:38:15.745Z,4.23
2018-02-14T12:40:43.169Z,3.87
2018-02-14T12:43:10.639Z,3.71
2018-02-14T12:45:38.064Z,3.77
2018-02-14T12:48:06.161Z,3.79
2018-02-14T12:50:33.662Z,3.84
2018-02-14T12:53:01.084Z,3.79
2018-02-14T12:55:28.559Z,3.80
2018-02-14T12:57:55.965Z,3.74
2018-02-14T13:00:23.406Z,3.81
2018-02-14T13:02:50.850Z,3.63
2018-02-14T13:05:18.363Z,3.87
2018-02-14T13:07:45.794Z,4.18
2018-02-14T13:10:13.217Z,3.90
2018-02-14T13:12:40.648Z,4.02
2018-02-14T13:15:08.188Z,4.06
2018-02-14T13:17:35.729Z,3.98
2018-02-14T13:20:03.154Z,4.17
2018-02-14T13:22:30.616Z,4.23
2018-02-14T13:24:58.117Z,4.14
2018-02-14T13:27:25.524Z,4.19
2018-02-14T13:29:53.795Z,4.31
2018-02-14T13:32:21.205Z,4.33
2018-02-14T13:34:48.661Z,4.37
2018-02-14T13:37:16.082Z,4.18
2018-02-14T13:39:43.543Z,4.61
2018-02-14T13:42:11.028Z,4.60
2018-02-14T13:44:38.444Z,4.79
2018-02-14T13:47:05.860Z,4.60
2018-02-14T13:49:33.271Z,4.43
2018-02-14T13:52:00.706Z,4.34
2018-02-14T13:54:28.105Z,4.76
2018-02-14T13:56:55.533Z,4.53
2018-02-14T13:59:22.985Z,4.50
2018-02-14T14:01:50.397Z,4.27
2018-02-14T14:04:17.904Z,4.35
2018-02-14T14:06:45.353Z,4.78
2018-02-14T14:09:12.807Z,5.00
2018-02-14T14:11:40.229Z,4.93
2018-02-14T14:14:07.665Z,4.81
2018-02-14T14:16:35.080Z,4.63
2018-02-14T14:19:02.498Z,4.63
2018-02-14T14:21:29.918Z,4.67
2018-02-14T14:23:57.339Z,4.78
2018-02-14T14:26:24.767Z,5.33
2018-02-14T14:28:52.265Z,5.30
2018-02-14T14:31:19.668Z,4.95
2018-02-14T14:33:47.108Z,4.98
2018-02-14T14:36:14.533Z,4.62
2018-02-14T14:38:41.948Z,4.85
2018-02-14T14:41:10.476Z,5.00
2018-02-14T14:43:37.902Z,4.75
2018-02-14T14:46:05.310Z,4.69
2018-02-14T14:48:32.812Z,4.66
2018-02-14T14:51:00.210Z,4.65
2018-02-14T14:53:27.630Z,4.63
2018-02-14T14:55:55.081Z,4.67
2018-02-14T14:58:22.502Z,4.60
2018-02-14T15:00:49.912Z,4.53
2018-02-14T15:03:17.327Z,4.79
2018-02-14T15:05:44.742Z,4.73
2018-02-14T15:08:12.162Z,4.65
2018-02-14T15:10:39.570Z,4.59
2018-02-14T15:13:06.989Z,4.60
2018-02-14T15:15:34.400Z,4.70
2018-02-14T15:18:01.817Z,5.07
2018-02-14T15:20:29.246Z,4.75
2018-02-14T15:22:56.769Z,4.73
2018-02-14T15:25:24.183Z,4.78
2018-02-14T15:27:51.604Z,4.67
2018-02-14T15:30:19.020Z,4.58
2018-02-14T15:32:46.485Z,4.40
2018-02-14T15:35:13.953Z,4.44
2018-02-14T15:37:42.310Z,4.69
2018-02-14T15:40:09.769Z,4.59
2018-02-14T15:42:37.176Z,4.70
2018-02-14T15:45:04.591Z,4.50
2018-02-14T15:47:31.994Z,4.50
2018-02-14T15:49:59.421Z,4.38
2018-02-14T15:52:26.833Z,4.26
2018-02-14T15:54:54.248Z,4.41
2018-02-14T15:57:21.661Z,3.99
2018-02-14T15:59:49.129Z,3.87
2018-02-14T16:02:16.477Z,3.90
2018-02-14T16:04:44.065Z,3.92
2018-02-14T16:07:11.536Z,3.75
2018-02-14T16:09:39.023Z,3.90
2018-02-14T16:12:06.427Z,3.75
2018-02-14T16:14:33.868Z,3.66
2018-02-14T16:17:01.294Z,3.37
2018-02-14T16:19:28.792Z,3.20
2018-02-14T16:21:56.216Z,3.00
2018-02-14T16:24:23.669Z,2.95
2018-02-14T16:26:51.117Z,2.94
2018-02-14T16:29:18.601Z,2.88
2018-02-14T16:31:46.015Z,2.82
2018-02-14T16:34:13.429Z,2.83
2018-02-14T16:36:40.866Z,2.74
2018-02-14T16:39:08.303Z,2.65
2018-02-14T16:41:35.709Z,2.54
2018-02-14T16:44:03.134Z,2.39
2018-02-14T16:46:30.557Z,2.31
2018-02-14T16:48:57.990Z,2.17
2018-02-14T16:51:25.404Z,2.17
2018-02-14T16:53:52.805Z,1.97
2018-02-14T16:56:20.230Z,1.94
2018-02-14T16:58:47.650Z,1.88
2018-02-14T17:01:15.071Z,1.83
2018-02-14T17:03:42.535Z,1.76
2018-02-14T17:06:10.029Z,1.68
2018-02-14T17:08:37.440Z,1.75
2018-02-14T17:11:04.872Z,1.72
2018-02-14T17:13:32.293Z,1.69
2018-02-14T17:15:59.706Z,1.66
2018-02-14T17:18:27.205Z,1.72
2018-02-14T17:20:54.633Z,1.76
2018-02-14T17:23:22.094Z,1.73
2018-02-14T17:25:49.550Z,1.64
2018-02-14T17:28:17.747Z,1.64
2018-02-14T17:30:45.165Z,1.55
2018-02-14T17:33:12.624Z,1.47
2018-02-14T17:35:40.041Z,1.46
2018-02-14T17:38:07.449Z,1.42
2018-02-14T17:40:34.858Z,1.38
2018-02-14T17:43:02.330Z,1.32
2018-02-14T17:45:29.764Z,1.25
2018-02-14T17:47:57.237Z,1.30
2018-02-14T17:50:24.671Z,1.25
2018-02-14T17:52:52.135Z,1.29
2018-02-14T17:55:19.585Z,1.26
2018-02-14T17:57:46.990Z,1.22
2018-02-14T18:00:14.409Z,1.30
2018-02-14T18:02:41.860Z,1.34
2018-02-14T18:05:09.259Z,1.21
2018-02-14T18:07:36.668Z,1.11
2018-02-14T18:10:04.095Z,1.09
2018-02-14T18:12:31.514Z,1.01
2018-02-14T18:14:58.936Z,1.04
2018-02-14T18:17:26.366Z,1.08
2018-02-14T18:19:53.764Z,1.03
2018-02-14T18:22:21.173Z,0.90
2018-02-14T18:24:48.581Z,0.88
2018-02-14T18:27:16.112Z,0.85
2018-02-14T18:29:43.557Z,0.83
2018-02-14T18:32:10.976Z,0.80
2018-02-14T18:34:38.386Z,0.73
2018-02-14T18:37:05.838Z,0.66
2018-02-14T18:39:33.228Z,0.62
2018-02-14T18:42:00.648Z,0.63
2018-02-14T18:44:28.084Z,0.63
2018-02-14T18:46:55.501Z,0.61
2018-02-14T18:49:22.913Z,0.61
2018-02-14T18:51:50.401Z,0.50
2018-02-14T18:54:17.809Z,0.50
2018-02-14T18:56:45.237Z,0.47
2018-02-14T18:59:12.650Z,0.46
2018-02-14T19:01:40.102Z,0.42
2018-02-14T19:04:07.505Z,0.40
2018-02-14T19:06:34.942Z,0.36
2018-02-14T19:09:02.393Z,0.31
2018-02-14T19:11:29.806Z,0.31
2018-02-14T19:13:57.312Z,0.24
2018-02-14T19:16:24.735Z,0.17
2018-02-14T19:18:52.929Z,0.14
2018-02-14T19:21:20.376Z,0.13
2018-02-14T19:23:47.779Z,0.15
2018-02-14T19:26:15.185Z,0.02
2018-02-14T19:28:42.626Z,0.08
2018-02-14T19:31:10.073Z,0.05
2018-02-14T19:33:37.494Z,-0.02
2018-02-14T19:36:04.985Z,-0.09
2018-02-14T19:38:32.418Z,-0.15
2018-02-14T19:40:59.851Z,-0.22
2018-02-14T19:43:27.272Z,-0.23
2018-02-14T19:45:54.699Z,-0.15
2018-02-14T19:48:22.119Z,-0.21
2018-02-14T19:50:49.569Z,-0.06
2018-02-14T19:53:17.005Z,-0.13
2018-02-14T19:55:44.409Z,-0.21
2018-02-14T19:58:11.836Z,-0.20
2018-02-14T20:00:39.257Z,-0.36
2018-02-14T20:03:06.766Z,-0.52
2018-02-14T20:05:34.191Z,-0.47
2018-02-14T20:08:01.631Z,-0.39
2018-02-14T20:10:29.048Z,-0.45
2018-02-14T20:12:56.460Z,-0.54
2018-02-14T20:15:24.507Z,-0.67
2018-02-14T20:17:52.928Z,-0.52
2018-02-14T20:20:20.382Z,-0.47
2018-02-14T20:22:47.797Z,-0.50
2018-02-14T20:25:15.230Z,-0.59
2018-02-14T20:27:42.642Z,-0.64
2018-02-14T20:30:10.103Z,-0.72
2018-02-14T20:32:37.574Z,-0.71
2018-02-14T20:35:05.002Z,-0.67
2018-02-14T20:37:32.421Z,-0.51
2018-02-14T20:39:59.877Z,-0.47
2018-02-14T20:42:27.289Z,-0.41
2018-02-14T20:44:55.322Z,-0.43
2018-02-14T20:47:22.743Z,-0.54
2018-02-14T20:49:50.185Z,-0.66
2018-02-14T20:52:17.629Z,-0.96
2018-02-14T20:54:45.074Z,-1.05
2018-02-14T20:57:12.498Z,-1.01
2018-02-14T20:59:39.936Z,-1.06
2018-02-14T21:02:07.392Z,-1.12
2018-02-14T21:04:34.837Z,-1.11
2018-02-14T21:07:02.255Z,-0.98
2018-02-14T21:09:29.673Z,-1.04
2018-02-14T21:11:57.126Z,-0.95
2018-02-14T21:14:24.549Z,-1.08
2018-02-14T21:16:51.993Z,-1.17
2018-02-14T21:19:19.414Z,-1.26
2018-02-14T21:21:46.891Z,-1.24
2018-02-14T21:24:14.312Z,-1.23
2018-02-14T21:26:41.816Z,-1.34
2018-02-14T21:29:09.227Z,-1.45
2018-02-14T21:31:36.709Z,-1.47
2018-02-14T21:34:04.158Z,-1.50
2018-02-14T21:36:31.586Z,-1.50
2018-02-14T21:38:59.026Z,-1.42
2018-02-14T21:41:26.883Z,-1.42
2018-02-14T21:43:54.317Z,-1.39
2018-02-14T21:46:24.612Z,-1.47
2018-02-14T21:48:52.053Z,-1.49
2018-02-14T21:51:19.485Z,-1.55
2018-02-14T21:53:47.011Z,-1.53
2018-02-14T21:56:14.427Z,-1.51
2018-02-14T21:58:41.835Z,-1.53
2018-02-14T22:02:39.016Z,-1.55
2018-02-14T22:05:06.437Z,-1.57
2018-02-14T22:07:33.848Z,-1.55
2018-02-14T22:10:01.271Z,-1.50
2018-02-14T22:12:28.693Z,-1.44
2018-02-14T22:14:56.105Z,-1.48
2018-02-14T22:17:23.523Z,-1.39
2018-02-14T22:19:50.933Z,-1.50
2018-02-14T22:22:18.354Z,-1.52
2018-02-14T22:24:45.764Z,-1.39
2018-02-14T22:27:13.181Z,-1.61
2018-02-14T22:29:40.592Z,-1.54
2018-02-14T22:32:08.007Z,-1.59
2018-02-14T22:34:35.412Z,-1.57
2018-02-14T22:37:02.825Z,-1.47
2018-02-14T22:39:30.244Z,-1.43
2018-02-14T22:41:58.680Z,-1.46
2018-02-14T22:44:26.099Z,-1.60
2018-02-14T22:46:53.530Z,-1.66
2018-02-14T22:49:20.946Z,-1.70
2018-02-14T22:51:48.360Z,-1.69
2018-02-14T22:54:15.764Z,-1.69
2018-02-14T22:56:43.184Z,-1.65
2018-02-14T22:59:10.601Z,-1.67
2018-02-14T23:01:38.014Z,-1.66
2018-02-14T23:04:05.417Z,-1.60
2018-02-14T23:06:32.842Z,-1.42
2018-02-14T23:09:00.252Z,-1.57
2018-02-14T23:11:27.682Z,-1.66
2018-02-14T23:13:55.093Z,-1.62
2018-02-14T23:16:22.508Z,-1.67
2018-02-14T23:18:49.922Z,-1.70
2018-02-14T23:21:17.334Z,-1.69
2018-02-14T23:23:44.769Z,-1.71
2018-02-14T23:26:12.169Z,-1.69
2018-02-14T23:28:39.592Z,-1.69
2018-02-14T23:31:07.008Z,-1.68
2018-02-14T23:33:34.425Z,-1.70
2018-02-14T23:36:01.827Z,-1.60
2018-02-14T23:38:29.242Z,-1.65
2018-02-14T23:40:56.653Z,-1.63
2018-02-14T23:43:24.072Z,-1.63
2018-02-14T23:45:51.493Z,-1.59
2018-02-14T23:48:18.904Z,-1.58
2018-02-14T23:50:46.316Z,-1.53
2018-02-14T23:53:13.733Z,-1.52
2018-02-14T23:55:41.140Z,-1.51
2018-02-14T23:58:08.561Z,-1.49
